sensor_id;sensor_type;location;lat;lon;timestamp;P1;durP1;ratioP1;P2;durP2;ratioP2
15116;SDS011;7659;51.038;13.786;2023-04-24T00:00:20;5.72;;;3.42;;
15116;SDS011;7659;51.038;13.786;2023-04-24T00:02:46;4.53;;;3.25;;
15116;SDS011;7659;51.038;13.786;2023-04-24T00:05:12;5.72;;;3.58;;
15116;SDS011;7659;51.038;13.786;2023-04-24T00:07:39;4.95;;;3.67;;
15116;SDS011;7659;51.038;13.786;2023-04-24T00:10:05;5.82;;;3.40;;
15116;SDS011;7659;51.038;13.786;2023-04-24T00:12:31;7.45;;;3.42;;
15116;SDS011;7659;51.038;13.786;2023-04-24T00:14:57;6.53;;;3.65;;
15116;SDS011;7659;51.038;13.786;2023-04-24T00:17:22;5.65;;;3.63;;
15116;SDS011;7659;51.038;13.786;2023-04-24T00:19:48;4.55;;;3.38;;
15116;SDS011;7659;51.038;13.786;2023-04-24T00:22:16;5.47;;;3.70;;
15116;SDS011;7659;51.038;13.786;2023-04-24T00:24:41;5.93;;;3.35;;
15116;SDS011;7659;51.038;13.786;2023-04-24T00:27:08;6.43;;;3.70;;
15116;SDS011;7659;51.038;13.786;2023-04-24T00:29:34;4.75;;;3.50;;
15116;SDS011;7659;51.038;13.786;2023-04-24T00:32:00;7.45;;;3.97;;
15116;SDS011;7659;51.038;13.786;2023-04-24T00:34:26;6.28;;;4.03;;
15116;SDS011;7659;51.038;13.786;2023-04-24T00:36:52;7.70;;;3.58;;
15116;SDS011;7659;51.038;13.786;2023-04-24T00:39:21;4.93;;;3.60;;
15116;SDS011;7659;51.038;13.786;2023-04-24T00:41:46;7.75;;;4.28;;
15116;SDS011;7659;51.038;13.786;2023-04-24T00:44:14;6.28;;;3.72;;
15116;SDS011;7659;51.038;13.786;2023-04-24T00:46:39;5.30;;;4.10;;
15116;SDS011;7659;51.038;13.786;2023-04-24T00:49:06;5.13;;;4.15;;
15116;SDS011;7659;51.038;13.786;2023-04-24T00:51:32;7.45;;;4.18;;
15116;SDS011;7659;51.038;13.786;2023-04-24T00:53:59;5.50;;;4.10;;
15116;SDS011;7659;51.038;13.786;2023-04-24T00:56:25;5.30;;;4.00;;
15116;SDS011;7659;51.038;13.786;2023-04-24T00:58:50;8.98;;;4.93;;
15116;SDS011;7659;51.038;13.786;2023-04-24T01:01:16;7.03;;;4.18;;
15116;SDS011;7659;51.038;13.786;2023-04-24T01:03:43;8.65;;;4.20;;
15116;SDS011;7659;51.038;13.786;2023-04-24T01:06:09;6.13;;;4.35;;
15116;SDS011;7659;51.038;13.786;2023-04-24T01:08:35;5.95;;;3.97;;
15116;SDS011;7659;51.038;13.786;2023-04-24T01:11:03;8.27;;;3.80;;
15116;SDS011;7659;51.038;13.786;2023-04-24T01:13:28;7.50;;;4.15;;
15116;SDS011;7659;51.038;13.786;2023-04-24T01:15:54;6.80;;;4.60;;
15116;SDS011;7659;51.038;13.786;2023-04-24T01:18:20;9.40;;;3.90;;
15116;SDS011;7659;51.038;13.786;2023-04-24T01:20:49;10.05;;;4.65;;
15116;SDS011;7659;51.038;13.786;2023-04-24T01:23:17;8.18;;;4.50;;
15116;SDS011;7659;51.038;13.786;2023-04-24T01:25:43;6.00;;;4.25;;
15116;SDS011;7659;51.038;13.786;2023-04-24T01:28:09;6.75;;;4.78;;
15116;SDS011;7659;51.038;13.786;2023-04-24T01:30:35;6.05;;;4.20;;
15116;SDS011;7659;51.038;13.786;2023-04-24T01:33:02;8.05;;;4.07;;
15116;SDS011;7659;51.038;13.786;2023-04-24T01:35:28;7.32;;;4.38;;
15116;SDS011;7659;51.038;13.786;2023-04-24T01:37:53;4.50;;;3.42;;
15116;SDS011;7659;51.038;13.786;2023-04-24T01:40:19;5.63;;;4.18;;
15116;SDS011;7659;51.038;13.786;2023-04-24T01:42:46;7.05;;;4.47;;
15116;SDS011;7659;51.038;13.786;2023-04-24T01:45:12;6.93;;;3.42;;
15116;SDS011;7659;51.038;13.786;2023-04-24T01:47:40;8.05;;;4.40;;
15116;SDS011;7659;51.038;13.786;2023-04-24T01:50:08;7.05;;;4.90;;
15116;SDS011;7659;51.038;13.786;2023-04-24T01:52:34;4.78;;;4.15;;
15116;SDS011;7659;51.038;13.786;2023-04-24T01:55:02;7.53;;;4.30;;
15116;SDS011;7659;51.038;13.786;2023-04-24T01:57:31;6.70;;;5.13;;
15116;SDS011;7659;51.038;13.786;2023-04-24T01:59:56;6.72;;;4.03;;
15116;SDS011;7659;51.038;13.786;2023-04-24T02:02:22;5.75;;;4.47;;
15116;SDS011;7659;51.038;13.786;2023-04-24T02:04:49;9.32;;;4.47;;
15116;SDS011;7659;51.038;13.786;2023-04-24T02:07:15;7.65;;;4.70;;
15116;SDS011;7659;51.038;13.786;2023-04-24T02:09:40;7.35;;;4.38;;
15116;SDS011;7659;51.038;13.786;2023-04-24T02:12:06;6.20;;;4.10;;
15116;SDS011;7659;51.038;13.786;2023-04-24T02:14:33;5.70;;;4.00;;
15116;SDS011;7659;51.038;13.786;2023-04-24T02:16:59;6.10;;;4.13;;
15116;SDS011;7659;51.038;13.786;2023-04-24T02:19:28;6.68;;;5.03;;
15116;SDS011;7659;51.038;13.786;2023-04-24T02:21:53;7.72;;;4.65;;
15116;SDS011;7659;51.038;13.786;2023-04-24T02:24:19;6.25;;;4.53;;
15116;SDS011;7659;51.038;13.786;2023-04-24T02:26:44;8.40;;;4.90;;
15116;SDS011;7659;51.038;13.786;2023-04-24T02:29:10;7.45;;;4.55;;
15116;SDS011;7659;51.038;13.786;2023-04-24T02:31:36;6.88;;;5.03;;
15116;SDS011;7659;51.038;13.786;2023-04-24T02:34:02;9.77;;;4.55;;
15116;SDS011;7659;51.038;13.786;2023-04-24T02:36:27;7.60;;;4.75;;
15116;SDS011;7659;51.038;13.786;2023-04-24T02:38:53;9.38;;;4.72;;
15116;SDS011;7659;51.038;13.786;2023-04-24T02:41:18;9.50;;;4.75;;
15116;SDS011;7659;51.038;13.786;2023-04-24T02:43:43;5.80;;;4.68;;
15116;SDS011;7659;51.038;13.786;2023-04-24T02:46:10;9.00;;;4.82;;
15116;SDS011;7659;51.038;13.786;2023-04-24T02:48:36;6.93;;;5.82;;
15116;SDS011;7659;51.038;13.786;2023-04-24T02:51:01;5.70;;;4.60;;
15116;SDS011;7659;51.038;13.786;2023-04-24T02:53:27;6.15;;;4.20;;
15116;SDS011;7659;51.038;13.786;2023-04-24T02:55:52;6.90;;;5.10;;
15116;SDS011;7659;51.038;13.786;2023-04-24T02:58:18;9.63;;;4.47;;
15116;SDS011;7659;51.038;13.786;2023-04-24T03:00:45;8.95;;;5.32;;
15116;SDS011;7659;51.038;13.786;2023-04-24T03:03:11;9.43;;;5.00;;
15116;SDS011;7659;51.038;13.786;2023-04-24T03:05:37;7.05;;;5.18;;
15116;SDS011;7659;51.038;13.786;2023-04-24T03:08:02;7.05;;;5.05;;
15116;SDS011;7659;51.038;13.786;2023-04-24T03:10:28;7.97;;;5.90;;
15116;SDS011;7659;51.038;13.786;2023-04-24T03:12:54;7.90;;;4.95;;
15116;SDS011;7659;51.038;13.786;2023-04-24T03:15:20;5.82;;;5.10;;
15116;SDS011;7659;51.038;13.786;2023-04-24T03:17:45;8.50;;;5.63;;
15116;SDS011;7659;51.038;13.786;2023-04-24T03:20:11;8.82;;;5.85;;
15116;SDS011;7659;51.038;13.786;2023-04-24T03:22:37;9.27;;;5.82;;
15116;SDS011;7659;51.038;13.786;2023-04-24T03:25:05;6.45;;;5.03;;
15116;SDS011;7659;51.038;13.786;2023-04-24T03:27:31;6.97;;;5.43;;
15116;SDS011;7659;51.038;13.786;2023-04-24T03:30:00;7.13;;;5.13;;
15116;SDS011;7659;51.038;13.786;2023-04-24T03:32:37;6.93;;;5.55;;
15116;SDS011;7659;51.038;13.786;2023-04-24T03:35:06;10.93;;;5.47;;
15116;SDS011;7659;51.038;13.786;2023-04-24T03:37:32;9.77;;;5.47;;
15116;SDS011;7659;51.038;13.786;2023-04-24T03:40:12;9.68;;;6.22;;
15116;SDS011;7659;51.038;13.786;2023-04-24T03:42:38;7.07;;;5.53;;
15116;SDS011;7659;51.038;13.786;2023-04-24T03:45:04;11.32;;;5.95;;
15116;SDS011;7659;51.038;13.786;2023-04-24T03:47:33;9.43;;;5.82;;
15116;SDS011;7659;51.038;13.786;2023-04-24T03:50:01;9.75;;;5.63;;
15116;SDS011;7659;51.038;13.786;2023-04-24T03:52:27;8.55;;;5.68;;
15116;SDS011;7659;51.038;13.786;2023-04-24T03:54:53;10.45;;;5.63;;
15116;SDS011;7659;51.038;13.786;2023-04-24T03:57:18;7.82;;;6.07;;
15116;SDS011;7659;51.038;13.786;2023-04-24T03:59:56;7.28;;;5.65;;
15116;SDS011;7659;51.038;13.786;2023-04-24T04:02:23;8.85;;;6.03;;
15116;SDS011;7659;51.038;13.786;2023-04-24T04:04:49;9.35;;;6.22;;
15116;SDS011;7659;51.038;13.786;2023-04-24T04:07:15;10.40;;;5.72;;
15116;SDS011;7659;51.038;13.786;2023-04-24T04:09:40;7.47;;;5.55;;
15116;SDS011;7659;51.038;13.786;2023-04-24T04:12:06;7.88;;;4.95;;
15116;SDS011;7659;51.038;13.786;2023-04-24T04:14:32;12.82;;;5.65;;
15116;SDS011;7659;51.038;13.786;2023-04-24T04:16:58;6.78;;;5.22;;
15116;SDS011;7659;51.038;13.786;2023-04-24T04:19:24;8.82;;;5.38;;
15116;SDS011;7659;51.038;13.786;2023-04-24T04:21:50;9.18;;;5.63;;
15116;SDS011;7659;51.038;13.786;2023-04-24T04:24:38;7.20;;;5.03;;
15116;SDS011;7659;51.038;13.786;2023-04-24T04:27:06;10.63;;;5.38;;
15116;SDS011;7659;51.038;13.786;2023-04-24T04:29:41;8.23;;;5.47;;
15116;SDS011;7659;51.038;13.786;2023-04-24T04:32:09;8.98;;;5.00;;
15116;SDS011;7659;51.038;13.786;2023-04-24T04:34:36;6.43;;;2.13;;
15116;SDS011;7659;51.038;13.786;2023-04-24T04:37:03;9.05;;;4.25;;
15116;SDS011;7659;51.038;13.786;2023-04-24T04:39:40;7.38;;;4.25;;
15116;SDS011;7659;51.038;13.786;2023-04-24T04:42:10;8.10;;;4.25;;
15116;SDS011;7659;51.038;13.786;2023-04-24T04:44:39;8.15;;;4.78;;
15116;SDS011;7659;51.038;13.786;2023-04-24T04:47:07;7.32;;;4.80;;
15116;SDS011;7659;51.038;13.786;2023-04-24T04:49:35;6.30;;;4.35;;
15116;SDS011;7659;51.038;13.786;2023-04-24T04:52:04;8.43;;;4.57;;
15116;SDS011;7659;51.038;13.786;2023-04-24T04:54:30;7.78;;;4.45;;
15116;SDS011;7659;51.038;13.786;2023-04-24T04:56:56;6.93;;;2.88;;
15116;SDS011;7659;51.038;13.786;2023-04-24T04:59:23;3.72;;;2.50;;
15116;SDS011;7659;51.038;13.786;2023-04-24T05:01:53;10.93;;;2.88;;
15116;SDS011;7659;51.038;13.786;2023-04-24T05:04:20;3.03;;;1.67;;
15116;SDS011;7659;51.038;13.786;2023-04-24T05:06:46;4.35;;;2.00;;
15116;SDS011;7659;51.038;13.786;2023-04-24T05:09:13;11.65;;;3.10;;
15116;SDS011;7659;51.038;13.786;2023-04-24T05:11:47;7.18;;;2.30;;
15116;SDS011;7659;51.038;13.786;2023-04-24T05:14:13;6.75;;;2.10;;
15116;SDS011;7659;51.038;13.786;2023-04-24T05:16:39;1.67;;;1.33;;
15116;SDS011;7659;51.038;13.786;2023-04-24T05:19:09;5.68;;;1.30;;
15116;SDS011;7659;51.038;13.786;2023-04-24T05:21:39;4.22;;;2.00;;
15116;SDS011;7659;51.038;13.786;2023-04-24T05:24:12;10.63;;;2.33;;
15116;SDS011;7659;51.038;13.786;2023-04-24T05:26:56;3.47;;;1.92;;
15116;SDS011;7659;51.038;13.786;2023-04-24T05:29:30;3.97;;;2.22;;
15116;SDS011;7659;51.038;13.786;2023-04-24T05:31:57;5.85;;;1.67;;
15116;SDS011;7659;51.038;13.786;2023-04-24T05:34:28;3.08;;;1.35;;
15116;SDS011;7659;51.038;13.786;2023-04-24T05:36:57;4.65;;;2.10;;
15116;SDS011;7659;51.038;13.786;2023-04-24T05:39:23;8.50;;;2.70;;
15116;SDS011;7659;51.038;13.786;2023-04-24T05:41:50;5.50;;;2.05;;
15116;SDS011;7659;51.038;13.786;2023-04-24T05:44:16;4.28;;;1.90;;
15116;SDS011;7659;51.038;13.786;2023-04-24T05:46:41;6.85;;;2.22;;
15116;SDS011;7659;51.038;13.786;2023-04-24T05:49:08;7.10;;;2.28;;
15116;SDS011;7659;51.038;13.786;2023-04-24T05:51:35;9.43;;;2.20;;
15116;SDS011;7659;51.038;13.786;2023-04-24T05:54:00;5.28;;;1.83;;
15116;SDS011;7659;51.038;13.786;2023-04-24T05:56:28;4.47;;;2.05;;
15116;SDS011;7659;51.038;13.786;2023-04-24T05:58:53;6.07;;;2.17;;
15116;SDS011;7659;51.038;13.786;2023-04-24T06:01:19;3.95;;;1.60;;
15116;SDS011;7659;51.038;13.786;2023-04-24T06:03:52;8.30;;;1.55;;
15116;SDS011;7659;51.038;13.786;2023-04-24T06:06:18;5.32;;;1.00;;
15116;SDS011;7659;51.038;13.786;2023-04-24T06:08:44;1.65;;;0.93;;
15116;SDS011;7659;51.038;13.786;2023-04-24T06:11:11;2.38;;;0.70;;
15116;SDS011;7659;51.038;13.786;2023-04-24T06:13:37;1.95;;;0.95;;
15116;SDS011;7659;51.038;13.786;2023-04-24T06:16:35;3.90;;;0.90;;
15116;SDS011;7659;51.038;13.786;2023-04-24T06:19:08;4.70;;;1.00;;
15116;SDS011;7659;51.038;13.786;2023-04-24T06:21:34;1.25;;;1.00;;
15116;SDS011;7659;51.038;13.786;2023-04-24T06:24:00;1.58;;;0.70;;
15116;SDS011;7659;51.038;13.786;2023-04-24T06:26:25;5.45;;;0.98;;
15116;SDS011;7659;51.038;13.786;2023-04-24T06:28:52;2.03;;;0.80;;
15116;SDS011;7659;51.038;13.786;2023-04-24T06:31:19;2.72;;;0.98;;
15116;SDS011;7659;51.038;13.786;2023-04-24T06:33:45;2.53;;;0.95;;
15116;SDS011;7659;51.038;13.786;2023-04-24T06:36:10;3.75;;;0.90;;
15116;SDS011;7659;51.038;13.786;2023-04-24T06:38:36;1.45;;;0.75;;
15116;SDS011;7659;51.038;13.786;2023-04-24T06:41:01;4.10;;;1.33;;
15116;SDS011;7659;51.038;13.786;2023-04-24T06:43:28;2.97;;;0.80;;
15116;SDS011;7659;51.038;13.786;2023-04-24T06:45:54;2.25;;;0.88;;
15116;SDS011;7659;51.038;13.786;2023-04-24T06:48:19;3.50;;;0.98;;
15116;SDS011;7659;51.038;13.786;2023-04-24T06:50:44;3.25;;;0.93;;
15116;SDS011;7659;51.038;13.786;2023-04-24T06:53:10;2.13;;;0.90;;
15116;SDS011;7659;51.038;13.786;2023-04-24T06:55:37;3.85;;;1.08;;
15116;SDS011;7659;51.038;13.786;2023-04-24T06:58:03;2.58;;;0.95;;
15116;SDS011;7659;51.038;13.786;2023-04-24T07:00:28;4.22;;;1.00;;
15116;SDS011;7659;51.038;13.786;2023-04-24T07:02:55;1.55;;;0.68;;
15116;SDS011;7659;51.038;13.786;2023-04-24T07:05:20;3.72;;;0.88;;
15116;SDS011;7659;51.038;13.786;2023-04-24T07:07:47;1.38;;;0.63;;
15116;SDS011;7659;51.038;13.786;2023-04-24T07:10:12;2.17;;;0.90;;
15116;SDS011;7659;51.038;13.786;2023-04-24T07:12:38;3.30;;;0.80;;
15116;SDS011;7659;51.038;13.786;2023-04-24T07:15:04;3.38;;;1.05;;
15116;SDS011;7659;51.038;13.786;2023-04-24T07:17:30;1.75;;;0.60;;
15116;SDS011;7659;51.038;13.786;2023-04-24T07:19:55;2.72;;;0.82;;
15116;SDS011;7659;51.038;13.786;2023-04-24T07:22:21;3.38;;;0.52;;
15116;SDS011;7659;51.038;13.786;2023-04-24T07:24:47;5.15;;;0.60;;
15116;SDS011;7659;51.038;13.786;2023-04-24T07:27:12;1.17;;;0.45;;
15116;SDS011;7659;51.038;13.786;2023-04-24T07:29:40;4.57;;;0.55;;
15116;SDS011;7659;51.038;13.786;2023-04-24T07:32:05;2.63;;;0.82;;
15116;SDS011;7659;51.038;13.786;2023-04-24T07:34:31;1.63;;;0.52;;
15116;SDS011;7659;51.038;13.786;2023-04-24T07:36:56;1.95;;;0.50;;
15116;SDS011;7659;51.038;13.786;2023-04-24T07:39:22;1.85;;;0.60;;
15116;SDS011;7659;51.038;13.786;2023-04-24T07:41:48;0.82;;;0.40;;
15116;SDS011;7659;51.038;13.786;2023-04-24T07:44:13;3.58;;;0.45;;
15116;SDS011;7659;51.038;13.786;2023-04-24T07:46:39;1.10;;;0.45;;
15116;SDS011;7659;51.038;13.786;2023-04-24T07:49:05;1.88;;;0.52;;
15116;SDS011;7659;51.038;13.786;2023-04-24T07:51:31;5.47;;;0.70;;
15116;SDS011;7659;51.038;13.786;2023-04-24T07:53:57;2.78;;;0.50;;
15116;SDS011;7659;51.038;13.786;2023-04-24T07:56:23;3.50;;;0.85;;
15116;SDS011;7659;51.038;13.786;2023-04-24T07:58:48;1.20;;;0.50;;
15116;SDS011;7659;51.038;13.786;2023-04-24T08:01:14;3.45;;;0.60;;
15116;SDS011;7659;51.038;13.786;2023-04-24T08:03:39;2.15;;;0.85;;
15116;SDS011;7659;51.038;13.786;2023-04-24T08:06:05;3.85;;;0.47;;
15116;SDS011;7659;51.038;13.786;2023-04-24T08:08:30;2.55;;;0.43;;
15116;SDS011;7659;51.038;13.786;2023-04-24T08:10:56;1.52;;;0.55;;
15116;SDS011;7659;51.038;13.786;2023-04-24T08:13:21;4.68;;;0.70;;
15116;SDS011;7659;51.038;13.786;2023-04-24T08:15:47;2.78;;;0.65;;
15116;SDS011;7659;51.038;13.786;2023-04-24T08:18:12;5.55;;;0.90;;
15116;SDS011;7659;51.038;13.786;2023-04-24T08:20:39;2.95;;;0.80;;
15116;SDS011;7659;51.038;13.786;2023-04-24T08:23:04;9.85;;;1.27;;
15116;SDS011;7659;51.038;13.786;2023-04-24T08:25:30;1.67;;;0.75;;
15116;SDS011;7659;51.038;13.786;2023-04-24T08:27:55;7.95;;;1.00;;
15116;SDS011;7659;51.038;13.786;2023-04-24T08:30:21;1.92;;;0.68;;
15116;SDS011;7659;51.038;13.786;2023-04-24T08:32:47;5.82;;;0.50;;
15116;SDS011;7659;51.038;13.786;2023-04-24T08:35:12;2.65;;;0.60;;
15116;SDS011;7659;51.038;13.786;2023-04-24T08:37:38;2.42;;;0.50;;
15116;SDS011;7659;51.038;13.786;2023-04-24T08:40:05;2.20;;;0.40;;
15116;SDS011;7659;51.038;13.786;2023-04-24T08:42:31;2.05;;;0.60;;
15116;SDS011;7659;51.038;13.786;2023-04-24T08:44:58;3.97;;;1.20;;
15116;SDS011;7659;51.038;13.786;2023-04-24T08:47:24;2.17;;;0.70;;
15116;SDS011;7659;51.038;13.786;2023-04-24T08:49:50;0.98;;;0.30;;
15116;SDS011;7659;51.038;13.786;2023-04-24T08:52:16;3.17;;;0.60;;
15116;SDS011;7659;51.038;13.786;2023-04-24T08:54:42;2.10;;;0.70;;
15116;SDS011;7659;51.038;13.786;2023-04-24T08:57:10;0.93;;;0.43;;
15116;SDS011;7659;51.038;13.786;2023-04-24T08:59:37;3.63;;;0.65;;
15116;SDS011;7659;51.038;13.786;2023-04-24T09:02:03;1.45;;;0.40;;
15116;SDS011;7659;51.038;13.786;2023-04-24T09:04:28;2.50;;;0.50;;
15116;SDS011;7659;51.038;13.786;2023-04-24T09:06:55;3.30;;;0.68;;
15116;SDS011;7659;51.038;13.786;2023-04-24T09:09:20;2.85;;;0.60;;
15116;SDS011;7659;51.038;13.786;2023-04-24T09:11:46;6.70;;;0.68;;
15116;SDS011;7659;51.038;13.786;2023-04-24T09:14:12;4.47;;;0.68;;
15116;SDS011;7659;51.038;13.786;2023-04-24T09:16:38;6.32;;;0.50;;
15116;SDS011;7659;51.038;13.786;2023-04-24T09:19:03;1.88;;;0.43;;
15116;SDS011;7659;51.038;13.786;2023-04-24T09:21:32;3.88;;;0.47;;
15116;SDS011;7659;51.038;13.786;2023-04-24T09:23:59;1.30;;;0.50;;
15116;SDS011;7659;51.038;13.786;2023-04-24T09:26:25;1.45;;;0.50;;
15116;SDS011;7659;51.038;13.786;2023-04-24T09:28:50;2.63;;;0.43;;
15116;SDS011;7659;51.038;13.786;2023-04-24T09:31:18;2.83;;;0.60;;
15116;SDS011;7659;51.038;13.786;2023-04-24T09:36:31;1.05;;;0.45;;
15116;SDS011;7659;51.038;13.786;2023-04-24T09:39:03;1.73;;;0.40;;
15116;SDS011;7659;51.038;13.786;2023-04-24T09:41:29;3.85;;;0.68;;
15116;SDS011;7659;51.038;13.786;2023-04-24T09:43:55;3.83;;;0.63;;
15116;SDS011;7659;51.038;13.786;2023-04-24T09:46:21;2.65;;;0.70;;
15116;SDS011;7659;51.038;13.786;2023-04-24T09:48:47;3.95;;;0.50;;
15116;SDS011;7659;51.038;13.786;2023-04-24T09:51:13;1.50;;;0.50;;
15116;SDS011;7659;51.038;13.786;2023-04-24T09:53:44;0.93;;;0.40;;
15116;SDS011;7659;51.038;13.786;2023-04-24T09:56:13;1.08;;;0.40;;
15116;SDS011;7659;51.038;13.786;2023-04-24T09:58:38;3.50;;;0.68;;
15116;SDS011;7659;51.038;13.786;2023-04-24T10:01:04;2.20;;;0.40;;
15116;SDS011;7659;51.038;13.786;2023-04-24T10:03:30;0.98;;;0.30;;
15116;SDS011;7659;51.038;13.786;2023-04-24T10:05:59;3.20;;;0.50;;
15116;SDS011;7659;51.038;13.786;2023-04-24T10:08:25;1.90;;;0.63;;
15116;SDS011;7659;51.038;13.786;2023-04-24T10:10:51;2.05;;;0.40;;
15116;SDS011;7659;51.038;13.786;2023-04-24T10:13:17;5.68;;;0.50;;
15116;SDS011;7659;51.038;13.786;2023-04-24T10:15:42;1.65;;;0.40;;
15116;SDS011;7659;51.038;13.786;2023-04-24T10:18:08;1.05;;;0.40;;
15116;SDS011;7659;51.038;13.786;2023-04-24T10:20:36;2.00;;;0.30;;
15116;SDS011;7659;51.038;13.786;2023-04-24T10:23:01;3.13;;;0.60;;
15116;SDS011;7659;51.038;13.786;2023-04-24T10:25:28;2.30;;;0.50;;
15116;SDS011;7659;51.038;13.786;2023-04-24T10:27:54;7.20;;;0.73;;
15116;SDS011;7659;51.038;13.786;2023-04-24T10:30:25;2.80;;;0.40;;
15116;SDS011;7659;51.038;13.786;2023-04-24T10:32:50;2.72;;;0.40;;
15116;SDS011;7659;51.038;13.786;2023-04-24T10:35:16;5.03;;;0.50;;
15116;SDS011;7659;51.038;13.786;2023-04-24T10:37:46;1.20;;;0.55;;
15116;SDS011;7659;51.038;13.786;2023-04-24T10:40:24;1.10;;;0.50;;
15116;SDS011;7659;51.038;13.786;2023-04-24T10:42:51;0.77;;;0.40;;
15116;SDS011;7659;51.038;13.786;2023-04-24T10:45:18;2.30;;;0.50;;
15116;SDS011;7659;51.038;13.786;2023-04-24T10:50:28;2.15;;;0.60;;
15116;SDS011;7659;51.038;13.786;2023-04-24T10:53:05;2.40;;;0.60;;
15116;SDS011;7659;51.038;13.786;2023-04-24T10:55:44;1.73;;;0.45;;
15116;SDS011;7659;51.038;13.786;2023-04-24T10:58:10;1.45;;;0.60;;
15116;SDS011;7659;51.038;13.786;2023-04-24T11:00:36;2.95;;;0.47;;
15116;SDS011;7659;51.038;13.786;2023-04-24T11:03:04;4.38;;;0.70;;
15116;SDS011;7659;51.038;13.786;2023-04-24T11:05:51;3.40;;;0.50;;
15116;SDS011;7659;51.038;13.786;2023-04-24T11:08:16;2.55;;;0.47;;
15116;SDS011;7659;51.038;13.786;2023-04-24T11:10:47;1.10;;;0.50;;
15116;SDS011;7659;51.038;13.786;2023-04-24T11:13:16;0.65;;;0.50;;
15116;SDS011;7659;51.038;13.786;2023-04-24T11:15:42;0.85;;;0.38;;
15116;SDS011;7659;51.038;13.786;2023-04-24T11:18:12;2.78;;;0.45;;
15116;SDS011;7659;51.038;13.786;2023-04-24T11:20:41;1.30;;;0.50;;
15116;SDS011;7659;51.038;13.786;2023-04-24T11:23:06;0.90;;;0.50;;
15116;SDS011;7659;51.038;13.786;2023-04-24T11:25:34;1.27;;;0.55;;
15116;SDS011;7659;51.038;13.786;2023-04-24T11:28:04;2.05;;;0.50;;
15116;SDS011;7659;51.038;13.786;2023-04-24T11:30:31;3.22;;;0.43;;
15116;SDS011;7659;51.038;13.786;2023-04-24T11:32:56;1.10;;;0.43;;
15116;SDS011;7659;51.038;13.786;2023-04-24T11:35:26;2.45;;;0.30;;
15116;SDS011;7659;51.038;13.786;2023-04-24T11:37:54;1.70;;;0.40;;
15116;SDS011;7659;51.038;13.786;2023-04-24T11:40:20;1.45;;;0.50;;
15116;SDS011;7659;51.038;13.786;2023-04-24T11:42:46;2.47;;;1.45;;
15116;SDS011;7659;51.038;13.786;2023-04-24T11:45:13;2.55;;;0.50;;
15116;SDS011;7659;51.038;13.786;2023-04-24T11:47:38;0.95;;;0.40;;
15116;SDS011;7659;51.038;13.786;2023-04-24T11:50:05;3.33;;;0.60;;
15116;SDS011;7659;51.038;13.786;2023-04-24T11:52:31;4.50;;;2.85;;
15116;SDS011;7659;51.038;13.786;2023-04-24T11:54:56;1.80;;;0.50;;
15116;SDS011;7659;51.038;13.786;2023-04-24T11:57:24;4.78;;;0.50;;
15116;SDS011;7659;51.038;13.786;2023-04-24T11:59:51;3.40;;;0.50;;
15116;SDS011;7659;51.038;13.786;2023-04-24T12:02:26;2.15;;;0.63;;
15116;SDS011;7659;51.038;13.786;2023-04-24T12:04:52;0.60;;;0.30;;
15116;SDS011;7659;51.038;13.786;2023-04-24T12:07:18;1.00;;;0.70;;
15116;SDS011;7659;51.038;13.786;2023-04-24T12:09:44;0.93;;;0.60;;
15116;SDS011;7659;51.038;13.786;2023-04-24T12:12:14;4.90;;;0.60;;
15116;SDS011;7659;51.038;13.786;2023-04-24T12:14:52;1.88;;;0.45;;
15116;SDS011;7659;51.038;13.786;2023-04-24T12:17:23;1.67;;;0.60;;
15116;SDS011;7659;51.038;13.786;2023-04-24T12:19:48;1.67;;;0.60;;
15116;SDS011;7659;51.038;13.786;2023-04-24T12:22:15;4.88;;;0.98;;
15116;SDS011;7659;51.038;13.786;2023-04-24T12:25:00;3.28;;;0.40;;
15116;SDS011;7659;51.038;13.786;2023-04-24T12:30:01;1.33;;;0.40;;
15116;SDS011;7659;51.038;13.786;2023-04-24T12:32:27;0.65;;;0.30;;
15116;SDS011;7659;51.038;13.786;2023-04-24T12:34:53;1.17;;;0.60;;
15116;SDS011;7659;51.038;13.786;2023-04-24T12:37:19;2.45;;;0.52;;
15116;SDS011;7659;51.038;13.786;2023-04-24T12:40:30;1.85;;;0.50;;
15116;SDS011;7659;51.038;13.786;2023-04-24T12:42:33;1.33;;;0.55;;
15116;SDS011;7659;51.038;13.786;2023-04-24T12:45:00;0.68;;;0.52;;
15116;SDS011;7659;51.038;13.786;2023-04-24T12:47:27;3.60;;;0.40;;
15116;SDS011;7659;51.038;13.786;2023-04-24T12:49:53;4.03;;;0.60;;
15116;SDS011;7659;51.038;13.786;2023-04-24T12:52:23;3.85;;;0.52;;
15116;SDS011;7659;51.038;13.786;2023-04-24T12:54:52;10.30;;;0.80;;
15116;SDS011;7659;51.038;13.786;2023-04-24T12:57:18;11.77;;;0.88;;
15116;SDS011;7659;51.038;13.786;2023-04-24T12:59:44;3.33;;;0.50;;
15116;SDS011;7659;51.038;13.786;2023-04-24T13:02:09;1.48;;;0.40;;
15116;SDS011;7659;51.038;13.786;2023-04-24T13:04:35;4.22;;;0.65;;
15116;SDS011;7659;51.038;13.786;2023-04-24T13:07:01;0.68;;;0.52;;
15116;SDS011;7659;51.038;13.786;2023-04-24T13:09:27;2.22;;;0.68;;
15116;SDS011;7659;51.038;13.786;2023-04-24T13:11:52;0.55;;;0.40;;
15116;SDS011;7659;51.038;13.786;2023-04-24T13:14:18;0.82;;;0.60;;
15116;SDS011;7659;51.038;13.786;2023-04-24T13:16:43;2.47;;;1.63;;
15116;SDS011;7659;51.038;13.786;2023-04-24T13:19:09;2.40;;;0.50;;
15116;SDS011;7659;51.038;13.786;2023-04-24T13:21:34;2.05;;;0.60;;
15116;SDS011;7659;51.038;13.786;2023-04-24T13:24:00;2.25;;;0.40;;
15116;SDS011;7659;51.038;13.786;2023-04-24T13:26:25;0.85;;;0.52;;
15116;SDS011;7659;51.038;13.786;2023-04-24T13:28:51;2.78;;;0.60;;
15116;SDS011;7659;51.038;13.786;2023-04-24T13:31:16;2.40;;;0.70;;
15116;SDS011;7659;51.038;13.786;2023-04-24T13:33:42;7.07;;;0.70;;
15116;SDS011;7659;51.038;13.786;2023-04-24T13:36:07;1.23;;;0.50;;
15116;SDS011;7659;51.038;13.786;2023-04-24T13:38:33;2.28;;;0.43;;
15116;SDS011;7659;51.038;13.786;2023-04-24T13:40:58;2.28;;;0.60;;
15116;SDS011;7659;51.038;13.786;2023-04-24T13:43:24;3.97;;;0.50;;
15116;SDS011;7659;51.038;13.786;2023-04-24T13:45:49;5.72;;;0.70;;
15116;SDS011;7659;51.038;13.786;2023-04-24T13:48:15;0.85;;;0.47;;
15116;SDS011;7659;51.038;13.786;2023-04-24T13:50:41;1.30;;;0.50;;
15116;SDS011;7659;51.038;13.786;2023-04-24T13:53:07;4.60;;;0.50;;
15116;SDS011;7659;51.038;13.786;2023-04-24T13:55:32;2.70;;;0.52;;
15116;SDS011;7659;51.038;13.786;2023-04-24T13:57:58;1.05;;;0.30;;
15116;SDS011;7659;51.038;13.786;2023-04-24T14:00:23;3.85;;;0.50;;
15116;SDS011;7659;51.038;13.786;2023-04-24T14:02:48;2.95;;;0.47;;
15116;SDS011;7659;51.038;13.786;2023-04-24T14:05:14;0.30;;;0.30;;
15116;SDS011;7659;51.038;13.786;2023-04-24T14:07:40;4.15;;;0.68;;
15116;SDS011;7659;51.038;13.786;2023-04-24T14:10:06;2.60;;;0.50;;
15116;SDS011;7659;51.038;13.786;2023-04-24T14:12:32;4.95;;;0.40;;
15116;SDS011;7659;51.038;13.786;2023-04-24T14:14:57;2.08;;;0.40;;
15116;SDS011;7659;51.038;13.786;2023-04-24T14:17:23;2.53;;;0.60;;
15116;SDS011;7659;51.038;13.786;2023-04-24T14:19:48;1.15;;;0.55;;
15116;SDS011;7659;51.038;13.786;2023-04-24T14:22:14;3.15;;;0.43;;
15116;SDS011;7659;51.038;13.786;2023-04-24T14:24:39;2.40;;;0.43;;
15116;SDS011;7659;51.038;13.786;2023-04-24T14:27:04;0.57;;;0.32;;
15116;SDS011;7659;51.038;13.786;2023-04-24T14:29:30;1.92;;;0.43;;
15116;SDS011;7659;51.038;13.786;2023-04-24T14:31:56;2.15;;;0.50;;
15116;SDS011;7659;51.038;13.786;2023-04-24T14:34:21;1.75;;;0.45;;
15116;SDS011;7659;51.038;13.786;2023-04-24T14:36:46;2.72;;;0.47;;
15116;SDS011;7659;51.038;13.786;2023-04-24T14:39:12;0.98;;;0.40;;
15116;SDS011;7659;51.038;13.786;2023-04-24T14:41:37;1.52;;;0.50;;
15116;SDS011;7659;51.038;13.786;2023-04-24T14:44:04;5.47;;;0.70;;
15116;SDS011;7659;51.038;13.786;2023-04-24T14:46:30;3.40;;;0.40;;
15116;SDS011;7659;51.038;13.786;2023-04-24T14:48:56;2.17;;;0.82;;
15116;SDS011;7659;51.038;13.786;2023-04-24T14:51:22;4.20;;;0.50;;
15116;SDS011;7659;51.038;13.786;2023-04-24T14:53:47;2.35;;;0.60;;